createdAt,value
2019-02-26T00:02:10.239Z,99305.77
2019-02-26T00:05:19.409Z,99308.36
2019-02-26T00:08:26.719Z,99307.48
2019-02-26T00:11:35.699Z,99304.90
2019-02-26T00:14:43.069Z,99301.45
2019-02-26T00:17:50.871Z,99301.03
2019-02-26T00:21:00.305Z,99310.12
2019-02-26T00:24:09.920Z,99301.88
2019-02-26T00:27:16.045Z,99296.69
2019-02-26T00:30:22.812Z,99297.13
2019-02-26T00:33:29.723Z,99298.88
2019-02-26T00:36:38.187Z,99303.61
2019-02-26T00:39:45.361Z,99302.30
2019-02-26T00:42:56.488Z,99292.80
2019-02-26T00:46:03.071Z,99296.26
2019-02-26T00:49:09.177Z,99299.31
2019-02-26T00:52:15.781Z,99292.39
2019-02-26T00:55:25.231Z,99288.92
2019-02-26T00:58:32.076Z,99290.20
2019-02-26T01:01:39.192Z,99283.27
2019-02-26T01:04:46.726Z,99290.63
2019-02-26T01:07:56.374Z,99292.38
2019-02-26T01:11:03.917Z,99290.64
2019-02-26T01:14:11.346Z,99296.27
2019-02-26T01:17:18.819Z,99288.48
2019-02-26T01:20:27.426Z,99289.78
2019-02-26T01:23:34.058Z,99284.59
2019-02-26T01:26:42.671Z,99280.23
2019-02-26T01:29:51.229Z,99273.74
2019-02-26T01:32:59.618Z,99275.94
2019-02-26T01:36:05.151Z,99268.98
2019-02-26T01:39:13.884Z,99260.75
2019-02-26T01:42:24.262Z,99251.25
2019-02-26T01:45:30.487Z,99244.36
2019-02-26T01:48:39.525Z,99241.27
2019-02-26T01:51:47.944Z,99244.31
2019-02-26T01:54:55.833Z,99239.15
2019-02-26T01:58:02.815Z,99228.76
2019-02-26T02:01:09.980Z,99231.34
2019-02-26T02:04:19.511Z,99232.18
2019-02-26T02:07:27.794Z,99232.63
2019-02-26T02:10:34.027Z,99226.98
2019-02-26T02:13:41.258Z,99217.45
2019-02-26T02:16:49.389Z,99216.58
2019-02-26T02:19:55.702Z,99214.44
2019-02-26T02:23:02.673Z,99215.77
2019-02-26T02:26:11.670Z,99209.64
2019-02-26T02:29:19.161Z,99203.63
2019-02-26T02:32:29.535Z,99201.48
2019-02-26T02:35:35.568Z,99205.39
2019-02-26T02:38:41.954Z,99200.63
2019-02-26T02:41:51.642Z,99194.59
2019-02-26T02:44:57.064Z,99187.66
2019-02-26T02:48:06.223Z,99187.66
2019-02-26T02:51:13.792Z,99190.27
2019-02-26T02:54:21.031Z,99187.66
2019-02-26T02:57:30.041Z,99185.05
2019-02-26T03:00:36.683Z,99200.59
2019-02-26T03:03:45.241Z,99205.83
2019-02-26T03:06:53.014Z,99211.01
2019-02-26T03:10:03.934Z,99204.52
2019-02-26T03:13:14.364Z,99206.69
2019-02-26T03:16:23.964Z,99205.84
2019-02-26T03:19:32.686Z,99206.27
2019-02-26T03:22:41.514Z,99206.25
2019-02-26T03:25:47.860Z,99209.73
2019-02-26T03:28:55.369Z,99204.95
2019-02-26T03:32:01.677Z,99202.78
2019-02-26T03:35:10.261Z,99194.15
2019-02-26T03:38:18.118Z,99190.68
2019-02-26T03:41:28.319Z,99190.27
2019-02-26T03:44:34.356Z,99194.53
2019-02-26T03:47:40.942Z,99189.79
2019-02-26T03:50:47.350Z,99193.30
2019-02-26T03:53:54.366Z,99189.41
2019-02-26T03:57:01.056Z,99175.56
2019-02-26T04:00:09.252Z,99184.68
2019-02-26T04:03:17.408Z,99190.35
2019-02-26T04:06:24.088Z,99189.46
2019-02-26T04:09:30.844Z,99184.70
2019-02-26T04:12:41.897Z,99186.86
2019-02-26T04:15:46.464Z,99183.87
2019-02-26T04:18:52.893Z,99192.50
2019-02-26T04:22:30.482Z,99191.61
2019-02-26T04:25:43.232Z,99183.42
2019-02-26T04:28:57.827Z,99179.98
2019-02-26T04:32:53.930Z,99179.56
2019-02-26T04:36:22.326Z,99195.14
2019-02-26T04:39:51.767Z,99191.72
2019-02-26T04:43:25.566Z,99196.03
2019-02-26T04:46:57.165Z,99188.70
2019-02-26T04:50:06.257Z,99189.99
2019-02-26T04:53:11.866Z,99188.73
2019-02-26T04:56:18.136Z,99189.58
2019-02-26T04:59:24.621Z,99192.63
2019-02-26T05:02:31.784Z,99197.80
2019-02-26T05:05:38.472Z,99193.91
2019-02-26T05:08:45.154Z,99201.69
2019-02-26T05:11:51.570Z,99203.42
2019-02-26T05:14:57.864Z,99202.98
2019-02-26T05:18:04.363Z,99202.58
2019-02-26T05:21:13.033Z,99212.95
2019-02-26T05:24:21.921Z,99208.20
2019-02-26T05:27:28.286Z,99206.45
2019-02-26T05:30:34.888Z,99199.97
2019-02-26T05:33:41.759Z,99205.60
2019-02-26T05:36:48.129Z,99203.41
2019-02-26T05:39:54.858Z,99196.53
2019-02-26T05:43:03.884Z,99197.38
2019-02-26T05:46:09.246Z,99191.75
2019-02-26T05:49:19.115Z,99183.13
2019-02-26T05:52:27.093Z,99172.75
2019-02-26T05:55:32.438Z,99167.55
2019-02-26T05:58:39.467Z,99161.94
2019-02-26T06:01:49.482Z,99158.04
2019-02-26T06:04:55.708Z,99155.42
2019-02-26T06:08:01.982Z,99171.39
2019-02-26T06:11:08.738Z,99173.55
2019-02-26T06:14:15.346Z,99172.27
2019-02-26T06:17:21.654Z,99171.38
2019-02-26T06:20:29.260Z,99163.59
2019-02-26T06:23:37.328Z,99167.06
2019-02-26T06:26:45.521Z,99161.44
2019-02-26T06:29:55.050Z,99164.41
2019-02-26T06:33:04.125Z,99169.17
2019-02-26T06:36:09.769Z,99176.47
2019-02-26T06:39:20.265Z,99177.75
2019-02-26T06:42:24.326Z,99185.50
2019-02-26T06:45:30.839Z,99179.02
2019-02-26T06:48:37.451Z,99178.09
2019-02-26T06:51:45.643Z,99178.08
2019-02-26T06:54:57.311Z,99189.74
2019-02-26T06:58:22.224Z,99194.95
2019-02-26T07:01:32.328Z,99197.52
2019-02-26T07:04:39.165Z,99187.08
2019-02-26T07:07:46.004Z,99182.83
2019-02-26T07:10:52.706Z,99168.50
2019-02-26T07:14:01.468Z,99167.58
2019-02-26T07:17:09.840Z,99159.79
2019-02-26T07:20:16.776Z,99167.12
2019-02-26T07:23:23.506Z,99167.10
2019-02-26T07:26:29.927Z,99164.91
2019-02-26T07:29:39.464Z,99165.33
2019-02-26T07:32:47.632Z,99167.04
2019-02-26T07:35:55.169Z,99163.13
2019-02-26T07:39:02.123Z,99169.98
2019-02-26T07:42:11.603Z,99170.31
2019-02-26T07:45:20.359Z,99167.55
2019-02-26T07:48:28.921Z,99182.59
2019-02-26T07:51:38.191Z,99181.70
2019-02-26T07:54:45.454Z,99170.70
2019-02-26T07:57:53.384Z,99180.58
2019-02-26T08:01:00.018Z,99187.11
2019-02-26T08:04:09.404Z,99187.41
2019-02-26T08:07:15.064Z,99190.57
2019-02-26T08:10:22.040Z,99192.39
2019-02-26T08:13:31.582Z,99187.91
2019-02-26T08:16:38.085Z,99175.48
2019-02-26T08:19:47.285Z,99177.55
2019-02-26T08:22:55.982Z,99172.44
2019-02-26T08:26:02.811Z,99172.30
2019-02-26T08:29:12.449Z,99170.29
2019-02-26T08:32:20.996Z,99173.41
2019-02-26T08:35:27.364Z,99167.57
2019-02-26T08:38:33.934Z,99157.59
2019-02-26T08:41:41.088Z,99157.28
2019-02-26T08:44:48.681Z,99151.77
2019-02-26T08:47:56.155Z,99155.45
2019-02-26T08:51:06.196Z,99146.52
2019-02-26T08:54:20.607Z,99151.12
2019-02-26T08:57:21.981Z,99147.48
2019-02-26T09:00:28.778Z,99147.42
2019-02-26T09:03:40.790Z,99151.98
2019-02-26T09:06:44.205Z,99154.09
2019-02-26T09:09:53.055Z,99151.15
2019-02-26T09:13:00.944Z,99145.28
2019-02-26T09:16:08.311Z,99153.13
2019-02-26T09:19:15.546Z,99153.02
2019-02-26T09:22:23.535Z,99151.45
2019-02-26T09:25:31.479Z,99155.50
2019-02-26T09:28:39.368Z,99159.08
2019-02-26T09:31:46.226Z,99149.31
2019-02-26T09:34:54.468Z,99152.55
2019-02-26T09:38:01.149Z,99155.81
2019-02-26T09:41:10.013Z,99157.59
2019-02-26T09:44:16.393Z,99158.38
2019-02-26T09:47:33.457Z,99160.20
2019-02-26T09:50:41.922Z,99147.39
2019-02-26T09:53:50.077Z,99147.34
2019-02-26T09:56:56.830Z,99152.23
2019-02-26T10:00:03.497Z,99151.78
2019-02-26T10:03:13.209Z,99157.19
2019-02-26T10:06:21.630Z,99157.36
2019-02-26T10:09:28.014Z,99149.68
2019-02-26T10:12:36.969Z,99149.66
2019-02-26T10:15:44.840Z,99121.79
2019-02-26T10:18:52.389Z,99126.65
2019-02-26T10:22:00.325Z,99115.84
2019-02-26T10:25:08.137Z,99115.11
2019-02-26T10:28:17.224Z,99111.06
2019-02-26T10:31:25.046Z,99108.48
2019-02-26T10:34:32.315Z,99116.95
2019-02-26T10:37:51.298Z,99125.58
2019-02-26T10:40:59.696Z,99125.62
2019-02-26T10:44:06.462Z,99124.23
2019-02-26T10:47:13.242Z,99123.29
2019-02-26T10:50:22.369Z,99128.21
2019-02-26T10:53:28.505Z,99115.98
2019-02-26T10:56:39.324Z,99121.92
2019-02-26T10:59:44.996Z,99126.10
2019-02-26T11:02:54.116Z,99119.57
2019-02-26T11:06:00.043Z,99117.47
2019-02-26T11:09:14.415Z,99118.23
2019-02-26T11:12:22.190Z,99120.31
2019-02-26T11:15:31.006Z,99128.42
2019-02-26T11:18:39.351Z,99129.14
2019-02-26T11:21:44.988Z,99125.75
2019-02-26T11:24:53.425Z,99127.77
2019-02-26T11:28:02.298Z,99125.58
2019-02-26T11:31:12.170Z,99127.55
2019-02-26T11:34:19.110Z,99121.17
2019-02-26T11:37:27.166Z,99119.26
2019-02-26T11:40:34.922Z,99115.16
2019-02-26T11:43:42.263Z,99111.36
2019-02-26T11:46:51.300Z,99109.97
2019-02-26T11:49:59.521Z,99107.77
2019-02-26T11:53:09.345Z,99107.94
2019-02-26T11:56:15.861Z,99094.46
2019-02-26T11:59:22.661Z,99098.50
2019-02-26T12:02:33.358Z,99100.46
2019-02-26T12:05:41.261Z,99095.34
2019-02-26T12:08:47.357Z,99087.46
2019-02-26T12:11:56.058Z,99081.20
2019-02-26T12:15:04.848Z,99082.32
2019-02-26T12:18:14.863Z,99071.59
2019-02-26T12:21:21.730Z,99072.94
2019-02-26T12:24:28.997Z,99068.36
2019-02-26T12:27:38.367Z,99058.58
2019-02-26T12:30:46.638Z,99049.22
2019-02-26T12:33:53.346Z,99057.38
2019-02-26T12:37:02.708Z,99047.06
2019-02-26T12:40:10.403Z,99046.39
2019-02-26T12:43:19.124Z,99038.79
2019-02-26T12:46:34.544Z,99029.59
2019-02-26T12:49:49.591Z,99029.61
2019-02-26T12:52:57.074Z,99024.50
2019-02-26T12:56:08.265Z,99025.63
2019-02-26T12:59:12.597Z,99018.85
2019-02-26T13:02:20.923Z,99019.83
2019-02-26T13:05:26.979Z,98997.56
2019-02-26T13:08:33.589Z,98994.53
2019-02-26T13:12:00.151Z,98997.23
2019-02-26T13:14:50.423Z,98990.45
2019-02-26T13:17:57.877Z,98992.00
2019-02-26T13:21:09.301Z,98991.41
2019-02-26T13:24:17.149Z,98984.45
2019-02-26T13:27:22.355Z,98984.81
2019-02-26T13:30:29.397Z,98975.34
2019-02-26T13:33:38.530Z,98973.38
2019-02-26T13:36:48.996Z,98961.44
2019-02-26T13:39:53.156Z,98955.80
2019-02-26T13:46:07.168Z,98965.36
2019-02-26T13:49:15.655Z,98966.09
2019-02-26T13:52:21.879Z,98959.41
2019-02-26T13:55:28.518Z,98965.50
2019-02-26T13:58:35.205Z,98965.29
2019-02-26T14:01:43.146Z,98968.67
2019-02-26T14:04:49.846Z,98963.81
2019-02-26T14:07:56.298Z,98957.77
2019-02-26T14:11:03.097Z,98950.58
2019-02-26T14:14:09.821Z,98952.27
2019-02-26T14:17:16.533Z,98953.86
2019-02-26T14:20:23.172Z,98945.25
2019-02-26T14:23:34.913Z,98952.42
2019-02-26T14:26:38.303Z,98951.80
2019-02-26T14:29:45.651Z,98951.30
2019-02-26T14:32:52.349Z,98949.50
2019-02-26T14:35:58.643Z,98945.97
2019-02-26T14:39:06.462Z,98953.84
2019-02-26T14:42:25.865Z,98945.70
2019-02-26T14:45:32.644Z,98938.52
2019-02-26T14:48:39.254Z,98939.07
2019-02-26T14:51:46.317Z,98937.25
2019-02-26T14:54:52.765Z,98944.10
2019-02-26T14:57:59.492Z,98943.88
2019-02-26T15:01:06.391Z,98943.97
2019-02-26T15:04:13.282Z,98938.32
2019-02-26T15:07:19.862Z,98945.76
2019-02-26T15:10:26.816Z,98939.14
2019-02-26T15:13:34.641Z,98943.27
2019-02-26T15:16:41.528Z,98936.20
2019-02-26T15:19:51.275Z,98931.03
2019-02-26T15:22:56.405Z,98930.09
2019-02-26T15:26:02.972Z,98923.74
2019-02-26T15:29:09.333Z,98921.48
2019-02-26T15:32:16.239Z,98921.22
2019-02-26T15:35:23.197Z,98908.15
2019-02-26T15:38:29.969Z,98917.77
2019-02-26T15:41:37.300Z,98898.66
2019-02-26T15:44:43.911Z,98905.52
2019-02-26T15:47:51.575Z,98899.50
2019-02-26T15:50:57.927Z,98899.69
2019-02-26T15:54:04.492Z,98899.70
2019-02-26T15:57:11.378Z,98893.78
2019-02-26T16:00:21.955Z,98895.73
2019-02-26T16:03:29.740Z,98897.34
2019-02-26T16:06:37.802Z,98907.44
2019-02-26T16:09:44.469Z,98901.95
2019-02-26T16:12:52.671Z,98909.23
2019-02-26T16:15:59.531Z,98914.27
2019-02-26T16:19:06.483Z,98910.67
2019-02-26T16:22:13.432Z,98917.78
2019-02-26T16:25:20.929Z,98921.00
2019-02-26T16:28:28.009Z,98921.31
2019-02-26T16:31:36.747Z,98940.41
2019-02-26T16:34:43.885Z,98938.91
2019-02-26T16:37:51.245Z,98947.30
2019-02-26T16:40:59.260Z,98944.84
2019-02-26T16:44:06.061Z,98943.98
2019-02-26T16:47:14.654Z,98946.78
2019-02-26T16:50:22.638Z,98949.78
2019-02-26T16:53:33.468Z,98945.00
2019-02-26T16:56:40.554Z,98956.79
2019-02-26T16:59:47.358Z,98959.07
2019-02-26T17:02:54.464Z,98968.84
2019-02-26T17:06:02.935Z,98962.09
2019-02-26T17:09:09.678Z,98974.03
2019-02-26T17:12:17.598Z,98970.81
2019-02-26T17:15:28.553Z,98983.44
2019-02-26T17:18:35.152Z,98975.98
2019-02-26T17:21:42.477Z,98979.94
2019-02-26T17:24:49.350Z,98980.33
2019-02-26T17:27:56.184Z,98986.02
2019-02-26T17:31:03.062Z,98990.14
2019-02-26T17:34:13.650Z,98992.30
2019-02-26T17:37:20.682Z,98992.70
2019-02-26T17:40:27.480Z,98982.08
2019-02-26T17:43:35.369Z,98981.77
2019-02-26T17:46:41.642Z,98988.83
2019-02-26T17:49:48.527Z,98996.72
2019-02-26T17:52:55.556Z,99002.59
2019-02-26T17:56:02.518Z,99008.42
2019-02-26T17:59:09.105Z,99014.05
2019-02-26T18:02:16.396Z,99014.05
2019-02-26T18:05:23.058Z,99017.34
2019-02-26T18:08:29.711Z,99010.57
2019-02-26T18:11:37.564Z,99006.02
2019-02-26T18:14:44.635Z,99008.48
2019-02-26T18:17:51.220Z,99010.89
2019-02-26T18:20:57.791Z,99008.56
2019-02-26T18:24:04.738Z,99011.31
2019-02-26T18:27:12.845Z,99007.20
2019-02-26T18:30:21.691Z,99011.34
2019-02-26T18:33:28.580Z,99020.63
2019-02-26T18:36:36.863Z,99023.80
2019-02-26T18:39:46.802Z,99020.61
2019-02-26T18:42:54.043Z,99020.77
2019-02-26T18:46:01.318Z,99012.28
2019-02-26T18:49:08.537Z,99016.88
2019-02-26T18:52:15.681Z,99007.09
2019-02-26T18:55:22.356Z,99012.36
2019-02-26T18:58:31.439Z,99002.67
2019-02-26T19:01:38.900Z,99002.16
2019-02-26T19:04:48.676Z,99001.74
2019-02-26T19:07:56.446Z,99010.95
2019-02-26T19:11:02.970Z,99012.84
2019-02-26T19:14:10.200Z,99005.02
2019-02-26T19:17:16.872Z,99012.78
2019-02-26T19:20:25.902Z,99018.41
2019-02-26T19:23:32.943Z,99017.10
2019-02-26T19:26:39.566Z,99010.39
2019-02-26T19:29:46.222Z,99010.00
2019-02-26T19:32:52.758Z,99000.88
2019-02-26T19:35:59.827Z,99007.33
2019-02-26T19:39:08.244Z,99001.76
2019-02-26T19:42:17.832Z,99005.23
2019-02-26T19:45:24.160Z,99012.29
2019-02-26T19:48:33.901Z,99015.43
2019-02-26T19:51:39.667Z,99009.69
2019-02-26T19:54:46.772Z,99009.55
2019-02-26T19:57:54.305Z,99007.40
2019-02-26T20:01:01.326Z,98998.38
2019-02-26T20:04:09.202Z,98997.02
2019-02-26T20:07:15.766Z,98999.31
2019-02-26T20:10:22.145Z,98998.94
2019-02-26T20:13:33.644Z,98997.69
2019-02-26T20:16:38.552Z,98992.52
2019-02-26T20:19:45.668Z,98990.37
2019-02-26T20:22:52.356Z,98991.52
2019-02-26T20:25:59.435Z,98984.03
2019-02-26T20:29:07.785Z,98983.61
2019-02-26T20:32:14.788Z,98979.84
2019-02-26T20:35:21.973Z,98973.73
2019-02-26T20:38:32.309Z,98981.14
2019-02-26T20:41:38.782Z,98977.84
2019-02-26T20:44:46.138Z,98983.87
2019-02-26T20:47:53.062Z,98983.49
2019-02-26T20:50:59.548Z,98975.36
2019-02-26T20:54:06.919Z,98985.77
2019-02-26T20:57:14.557Z,98988.86
2019-02-26T21:00:24.901Z,98993.66
2019-02-26T21:03:30.385Z,98990.61
2019-02-26T21:06:39.206Z,98982.91
2019-02-26T21:09:46.080Z,98981.61
2019-02-26T21:12:53.736Z,98985.88
2019-02-26T21:16:01.067Z,98978.63
2019-02-26T21:19:08.736Z,98985.62
2019-02-26T21:22:15.446Z,98987.84
2019-02-26T21:25:22.661Z,98986.17
2019-02-26T21:28:33.540Z,98981.93
2019-02-26T21:31:39.650Z,98984.12
2019-02-26T21:34:51.256Z,98984.97
2019-02-26T21:37:58.279Z,98978.50
2019-02-26T21:41:05.339Z,98978.54
2019-02-26T21:44:12.165Z,98972.45
2019-02-26T21:47:20.250Z,98979.05
2019-02-26T21:50:27.317Z,98986.87
2019-02-26T21:53:33.925Z,98985.99
2019-02-26T21:56:40.401Z,98989.95
2019-02-26T21:59:50.213Z,98978.67
2019-02-26T22:02:56.038Z,98985.27
2019-02-26T22:06:05.549Z,98985.73
2019-02-26T22:09:11.343Z,98990.55
2019-02-26T22:12:18.634Z,98987.33
2019-02-26T22:15:25.183Z,98984.50
2019-02-26T22:18:34.244Z,98984.67
2019-02-26T22:21:51.796Z,98985.53
2019-02-26T22:24:57.316Z,98979.33
2019-02-26T22:28:08.808Z,98977.23
2019-02-26T22:31:15.743Z,98977.28
2019-02-26T22:34:21.992Z,98979.94
2019-02-26T22:37:28.826Z,98972.61
2019-02-26T22:40:35.322Z,98978.23
2019-02-26T22:43:44.807Z,98982.13
2019-02-26T22:46:50.424Z,98978.17
2019-02-26T22:49:58.337Z,98977.34
2019-02-26T22:53:05.203Z,98985.14
2019-02-26T22:56:12.279Z,98991.66
2019-02-26T22:59:18.681Z,98979.52
2019-02-26T23:02:25.814Z,98969.12
2019-02-26T23:05:32.429Z,98970.93
2019-02-26T23:08:44.554Z,98975.38
2019-02-26T23:11:49.614Z,98971.00
2019-02-26T23:14:56.475Z,98957.02
2019-02-26T23:18:03.111Z,98960.03
2019-02-26T23:21:15.480Z,98962.30
2019-02-26T23:24:20.009Z,98958.84
2019-02-26T23:27:27.403Z,98959.28
2019-02-26T23:30:34.558Z,98960.20
2019-02-26T23:33:41.387Z,98953.70
2019-02-26T23:36:48.963Z,98949.84
2019-02-26T23:39:56.086Z,98950.30
2019-02-26T23:43:04.097Z,98943.42
2019-02-26T23:46:10.695Z,98948.20
2019-02-26T23:49:17.578Z,98945.18
2019-02-26T23:52:24.896Z,98949.91
2019-02-26T23:55:33.107Z,98942.64
2019-02-26T23:58:40.403Z,98935.75
